Time;durP1;ratioP1;P1;durP2;ratioP2;P2;SDS_P1;SDS_P2;PMS_P1;PMS_P2;Temp;Humidity;BMP_temperature;BMP_pressure;BME280_temperature;BME280_humidity;BME280_pressure;Samples;Min_cycle;Max_cycle;Signal;HPM_P1;HPM_P2
2020/12/16 00:02:01;;;;;;;1.60;1.53;;;6.40;98.00;;;;;;5051997;28;20471;-62
2020/12/16 00:04:28;;;;;;;3.40;1.87;;;6.40;98.00;;;;;;5050730;28;20484;-63
2020/12/16 00:06:55;;;;;;;2.23;1.60;;;6.50;98.00;;;;;;5052019;28;20460;-64
2020/12/16 00:09:22;;;;;;;1.67;1.67;;;6.60;98.00;;;;;;5050721;28;20467;-62
2020/12/16 00:11:48;;;;;;;1.83;1.60;;;6.60;98.00;;;;;;5052017;28;20448;-63
2020/12/16 00:14:15;;;;;;;1.63;1.47;;;6.50;98.00;;;;;;5050590;28;20497;-64
2020/12/16 00:16:41;;;;;;;5.00;2.27;;;6.50;98.00;;;;;;5052244;28;20503;-63
2020/12/16 00:19:08;;;;;;;1.20;1.10;;;6.50;98.00;;;;;;5050773;28;20459;-62
2020/12/16 00:21:34;;;;;;;1.93;1.60;;;6.50;98.00;;;;;;5050674;28;20548;-62
2020/12/16 00:24:02;;;;;;;3.40;3.00;;;6.50;98.00;;;;;;5050411;28;20461;-64
2020/12/16 00:26:28;;;;;;;1.53;1.50;;;6.50;98.00;;;;;;5050738;28;20834;-63
2020/12/16 00:28:55;;;;;;;2.10;2.00;;;6.40;98.00;;;;;;5050107;28;20953;-63
2020/12/16 00:31:21;;;;;;;2.13;1.77;;;6.30;98.00;;;;;;5051842;28;20467;-63
2020/12/16 00:33:48;;;;;;;2.90;1.97;;;6.30;98.00;;;;;;5050228;28;20944;-62
2020/12/16 00:36:14;;;;;;;2.37;1.70;;;6.20;98.00;;;;;;5051520;28;20488;-62
2020/12/16 00:38:41;;;;;;;1.40;1.17;;;6.20;98.00;;;;;;5050011;28;20476;-62
2020/12/16 00:41:09;;;;;;;1.20;1.10;;;6.30;98.00;;;;;;5051186;28;20983;-63
2020/12/16 00:43:36;;;;;;;1.57;1.47;;;6.30;98.00;;;;;;5051199;28;20461;-63
2020/12/16 00:46:03;;;;;;;2.23;1.80;;;6.30;98.00;;;;;;5049809;28;20511;-62
2020/12/16 00:48:29;;;;;;;3.53;2.07;;;6.40;98.00;;;;;;5050148;28;20457;-63
2020/12/16 00:50:56;;;;;;;1.60;1.60;;;6.40;98.00;;;;;;5049990;28;20456;-63
2020/12/16 00:53:22;;;;;;;1.10;1.10;;;6.30;98.00;;;;;;5051219;28;20909;-62
2020/12/16 00:55:49;;;;;;;1.60;1.40;;;6.30;98.00;;;;;;5049657;28;20492;-64
2020/12/16 00:58:16;;;;;;;1.87;1.77;;;6.40;98.00;;;;;;5051137;28;20461;-62
2020/12/16 01:00:43;;;;;;;1.30;1.30;;;6.40;98.00;;;;;;5049826;28;20463;-62
2020/12/16 01:03:10;;;;;;;4.03;2.47;;;6.50;98.00;;;;;;5050981;28;20474;-62
2020/12/16 01:05:37;;;;;;;1.97;1.87;;;6.50;98.00;;;;;;5048305;28;20524;-63
2020/12/16 01:08:05;;;;;;;1.67;1.20;;;6.50;98.00;;;;;;5050987;28;20860;-62
2020/12/16 01:10:31;;;;;;;1.20;1.20;;;6.50;98.00;;;;;;5049521;28;20456;-62
2020/12/16 01:13:01;;;;;;;2.07;1.93;;;6.40;98.00;;;;;;5051091;28;20468;-62
2020/12/16 01:15:28;;;;;;;1.70;1.67;;;6.30;98.00;;;;;;5049589;28;21037;-62
2020/12/16 01:17:54;;;;;;;1.40;1.20;;;6.30;98.00;;;;;;5050884;28;20459;-63
2020/12/16 01:20:21;;;;;;;3.30;1.50;;;6.30;98.00;;;;;;5047803;28;20559;-63
2020/12/16 01:22:50;;;;;;;3.13;1.57;;;6.30;98.00;;;;;;5050802;28;20976;-63
2020/12/16 01:25:18;;;;;;;1.20;1.10;;;6.30;98.00;;;;;;5049163;28;20488;-63
2020/12/16 01:27:45;;;;;;;6.77;2.70;;;6.30;98.00;;;;;;5050708;28;20977;-62
2020/12/16 01:30:11;;;;;;;1.30;1.20;;;6.30;98.00;;;;;;5049365;28;20460;-62
2020/12/16 01:32:39;;;;;;;1.40;1.40;;;6.30;98.00;;;;;;5050679;28;20472;-63
2020/12/16 01:35:06;;;;;;;4.50;1.33;;;6.30;98.00;;;;;;5049175;28;20523;-63
2020/12/16 01:37:33;;;;;;;1.50;1.20;;;6.30;98.00;;;;;;5050632;28;20475;-65
2020/12/16 01:40:00;;;;;;;2.20;2.03;;;6.30;98.00;;;;;;5049288;28;20470;-63
2020/12/16 01:42:27;;;;;;;1.70;1.60;;;6.30;98.00;;;;;;5050672;28;20469;-62
2020/12/16 01:44:53;;;;;;;1.40;1.40;;;6.20;98.00;;;;;;5049183;28;20478;-62
2020/12/16 01:47:20;;;;;;;4.13;2.43;;;6.10;98.00;;;;;;5049597;28;20476;-62
2020/12/16 01:49:47;;;;;;;2.13;1.50;;;6.10;98.00;;;;;;5049340;28;20981;-62
2020/12/16 01:52:19;;;;;;;1.73;1.70;;;6.10;98.00;;;;;;5050752;28;20465;-63
2020/12/16 01:54:47;;;;;;;1.60;1.20;;;6.00;98.00;;;;;;5053255;28;20464;-62
2020/12/16 01:57:18;;;;;;;1.90;1.33;;;5.90;98.00;;;;;;5054763;28;20461;-62
2020/12/16 01:59:46;;;;;;;1.40;1.30;;;5.90;98.00;;;;;;5053638;28;20521;-63
2020/12/16 02:02:16;;;;;;;2.80;2.03;;;5.90;98.00;;;;;;5054879;28;20972;-62
2020/12/16 02:04:44;;;;;;;1.30;1.30;;;5.80;98.00;;;;;;5053218;28;20486;-62
2020/12/16 02:07:14;;;;;;;2.63;2.10;;;5.80;98.00;;;;;;5054526;28;20466;-62
2020/12/16 02:09:44;;;;;;;1.57;1.43;;;5.80;98.00;;;;;;5053175;28;20460;-62
2020/12/16 02:12:15;;;;;;;1.47;1.20;;;5.90;98.00;;;;;;5054354;28;20546;-62
2020/12/16 02:14:43;;;;;;;1.10;1.00;;;5.90;98.00;;;;;;5052064;28;20543;-65
2020/12/16 02:17:10;;;;;;;3.73;1.50;;;5.90;98.00;;;;;;5053837;28;20449;-62
2020/12/16 02:19:42;;;;;;;2.60;1.50;;;5.80;98.00;;;;;;5054122;28;20459;-62
2020/12/16 02:22:10;;;;;;;3.97;2.33;;;5.90;98.00;;;;;;5052520;28;20460;-63
2020/12/16 02:24:41;;;;;;;1.10;1.00;;;5.90;98.00;;;;;;5053963;28;20484;-62
2020/12/16 02:27:11;;;;;;;1.10;1.10;;;6.10;98.00;;;;;;5052615;28;20467;-63
2020/12/16 02:29:38;;;;;;;1.50;1.33;;;6.20;98.00;;;;;;5054074;28;20822;-62
2020/12/16 02:32:05;;;;;;;1.10;1.00;;;6.20;98.00;;;;;;5052686;28;20454;-63
2020/12/16 02:34:31;;;;;;;1.30;1.20;;;6.10;98.00;;;;;;5053942;28;20455;-63
2020/12/16 02:36:58;;;;;;;1.40;1.30;;;6.10;98.00;;;;;;5052406;28;20467;-63
2020/12/16 02:39:24;;;;;;;1.60;1.50;;;6.10;98.00;;;;;;5054050;28;20462;-63
2020/12/16 02:41:58;;;;;;;1.73;1.57;;;6.20;98.00;;;;;;5052699;28;20467;-62
2020/12/16 02:44:26;;;;;;;2.60;1.57;;;6.20;98.00;;;;;;5053804;28;20460;-63
2020/12/16 02:46:56;;;;;;;3.77;1.50;;;6.20;98.00;;;;;;5051209;28;20862;-62
2020/12/16 02:49:23;;;;;;;1.60;1.53;;;6.20;98.00;;;;;;5053622;28;20463;-62
2020/12/16 02:51:49;;;;;;;1.67;1.27;;;6.20;98.00;;;;;;5052438;28;20463;-64
2020/12/16 02:54:16;;;;;;;1.10;1.00;;;6.20;98.00;;;;;;5054001;28;20451;-62
2020/12/16 02:56:47;;;;;;;3.30;2.30;;;6.20;98.00;;;;;;5052227;28;20468;-63
2020/12/16 02:59:14;;;;;;;3.00;1.97;;;6.20;98.00;;;;;;5053754;28;20469;-62
2020/12/16 03:01:41;;;;;;;3.87;1.83;;;6.20;98.00;;;;;;5051331;28;20835;-62
2020/12/16 03:04:12;;;;;;;1.10;0.90;;;6.20;98.00;;;;;;5052665;28;20818;-62
2020/12/16 03:06:39;;;;;;;1.43;1.20;;;6.20;98.00;;;;;;5052007;28;20485;-63
2020/12/16 03:09:05;;;;;;;1.20;1.00;;;6.20;98.00;;;;;;5053916;28;20461;-64
2020/12/16 03:11:31;;;;;;;1.20;1.10;;;6.00;98.00;;;;;;5052196;28;20460;-62
2020/12/16 03:13:59;;;;;;;1.20;1.20;;;6.00;98.00;;;;;;5053263;28;20455;-62
2020/12/16 03:16:25;;;;;;;1.27;1.23;;;6.00;98.00;;;;;;5051687;28;20466;-64
2020/12/16 03:18:53;;;;;;;1.40;1.10;;;6.00;98.00;;;;;;5053110;28;20594;-62
2020/12/16 03:21:23;;;;;;;2.40;1.60;;;6.00;98.00;;;;;;5051650;28;20953;-62
2020/12/16 03:23:50;;;;;;;1.23;1.17;;;6.00;98.00;;;;;;5053043;28;20479;-63
2020/12/16 03:26:17;;;;;;;1.20;1.10;;;6.00;98.00;;;;;;5051617;28;20486;-63
2020/12/16 03:28:44;;;;;;;4.80;2.60;;;6.00;98.00;;;;;;5053068;28;20455;-62
2020/12/16 03:31:10;;;;;;;2.30;1.57;;;6.00;98.00;;;;;;5051576;28;20459;-63
2020/12/16 03:33:39;;;;;;;2.60;1.80;;;6.00;98.00;;;;;;5053104;28;20464;-62
2020/12/16 03:36:06;;;;;;;1.80;1.57;;;6.00;98.00;;;;;;5051597;28;20951;-63
2020/12/16 03:38:34;;;;;;;1.20;1.20;;;6.10;98.00;;;;;;5053023;28;20963;-62
2020/12/16 03:41:00;;;;;;;2.13;1.53;;;6.10;98.00;;;;;;5051448;28;20456;-62
2020/12/16 03:43:27;;;;;;;1.63;1.50;;;6.00;98.00;;;;;;5052801;28;20964;-62
2020/12/16 03:45:54;;;;;;;1.30;1.23;;;6.00;98.00;;;;;;5051626;28;20489;-62
2020/12/16 03:48:22;;;;;;;1.40;1.23;;;5.90;98.00;;;;;;5052565;28;20467;-63
2020/12/16 03:50:48;;;;;;;4.13;2.40;;;5.90;98.00;;;;;;5049545;28;20468;-62
2020/12/16 03:53:17;;;;;;;1.40;1.20;;;6.00;98.00;;;;;;5051387;28;20459;-63
2020/12/16 03:55:44;;;;;;;1.10;1.00;;;6.00;98.00;;;;;;5051217;28;20543;-62
2020/12/16 03:58:12;;;;;;;1.20;1.10;;;6.10;98.00;;;;;;5051054;28;21030;-62
2020/12/16 04:00:38;;;;;;;2.33;2.17;;;6.20;98.00;;;;;;5052261;28;20464;-62
2020/12/16 04:03:16;;;;;;;1.50;1.30;;;6.30;98.00;;;;;;5050846;28;20465;-62
2020/12/16 04:05:43;;;;;;;1.30;1.10;;;6.30;98.00;;;;;;5052476;28;20579;-62
2020/12/16 04:08:10;;;;;;;2.57;2.37;;;6.30;98.00;;;;;;5050771;28;20978;-62
2020/12/16 04:10:37;;;;;;;1.30;1.20;;;6.10;98.00;;;;;;5051863;28;20972;-62
2020/12/16 04:13:05;;;;;;;1.23;1.17;;;6.00;98.00;;;;;;5050514;28;20464;-62
2020/12/16 04:15:32;;;;;;;1.73;1.63;;;6.00;98.00;;;;;;5052142;28;20856;-62
2020/12/16 04:17:58;;;;;;;1.13;1.13;;;6.00;98.00;;;;;;5049690;28;20459;-62
2020/12/16 04:20:27;;;;;;;1.43;1.37;;;6.00;98.00;;;;;;5052003;28;20535;-62
2020/12/16 04:22:53;;;;;;;1.30;1.10;;;6.10;98.00;;;;;;5050352;28;20538;-63
2020/12/16 04:25:20;;;;;;;2.43;1.40;;;6.10;98.00;;;;;;5051746;28;21016;-62
2020/12/16 04:27:47;;;;;;;1.10;1.00;;;6.10;98.00;;;;;;5049379;28;20465;-63
2020/12/16 04:30:14;;;;;;;2.10;1.97;;;6.10;98.00;;;;;;5051649;28;20503;-62
2020/12/16 04:32:40;;;;;;;1.73;1.63;;;6.20;98.00;;;;;;5050400;28;20499;-62
2020/12/16 04:35:07;;;;;;;1.37;1.10;;;6.20;98.00;;;;;;5051930;28;20454;-63
2020/12/16 04:37:34;;;;;;;1.10;1.10;;;6.10;98.00;;;;;;5048955;28;20466;-63
2020/12/16 04:40:00;;;;;;;2.57;1.90;;;6.00;98.00;;;;;;5051770;28;20955;-62
2020/12/16 04:42:26;;;;;;;2.13;1.70;;;5.90;98.00;;;;;;5050200;28;20976;-63
2020/12/16 04:44:54;;;;;;;1.30;1.00;;;5.90;98.00;;;;;;5051249;28;20488;-63
2020/12/16 04:47:22;;;;;;;1.73;1.30;;;5.80;98.00;;;;;;5049987;28;20459;-63
2020/12/16 04:49:52;;;;;;;5.53;2.00;;;5.60;98.00;;;;;;5051379;28;20593;-63
2020/12/16 04:52:22;;;;;;;2.43;1.77;;;5.60;98.00;;;;;;5049937;28;20510;-62
2020/12/16 04:54:49;;;;;;;3.50;2.20;;;5.60;98.00;;;;;;5051316;28;20850;-64
2020/12/16 04:57:16;;;;;;;1.97;1.67;;;5.60;98.00;;;;;;5050317;28;20831;-63
2020/12/16 04:59:42;;;;;;;2.87;2.03;;;5.50;98.00;;;;;;5051457;28;20778;-62
2020/12/16 05:02:10;;;;;;;1.10;1.00;;;5.50;98.00;;;;;;5048916;28;20489;-62
2020/12/16 05:04:36;;;;;;;1.20;1.10;;;5.40;98.00;;;;;;5051163;28;20459;-62
2020/12/16 05:07:03;;;;;;;2.03;1.33;;;5.40;98.00;;;;;;5049533;28;20456;-62
2020/12/16 05:09:29;;;;;;;1.13;1.03;;;5.50;98.00;;;;;;5051148;28;20833;-64
2020/12/16 05:11:56;;;;;;;3.30;1.77;;;5.50;98.00;;;;;;5049589;28;20462;-63
2020/12/16 05:14:24;;;;;;;1.90;1.40;;;5.60;98.00;;;;;;5051092;28;20529;-62
2020/12/16 05:16:59;;;;;;;1.50;1.20;;;5.70;98.00;;;;;;5051142;28;20458;-63
2020/12/16 05:19:40;;;;;;;2.90;2.13;;;5.70;98.00;;;;;;5049565;28;20461;-63
2020/12/16 05:22:21;;;;;;;1.13;1.00;;;5.70;98.00;;;;;;5050967;28;20465;-62
2020/12/16 05:24:49;;;;;;;1.40;1.20;;;5.60;98.00;;;;;;5050868;28;20979;-63
2020/12/16 05:27:21;;;;;;;1.60;1.57;;;5.50;98.00;;;;;;5049887;28;20592;-63
2020/12/16 05:29:52;;;;;;;1.47;1.43;;;5.50;98.00;;;;;;5050823;28;20473;-62
2020/12/16 05:32:21;;;;;;;3.43;1.63;;;5.50;98.00;;;;;;5050344;28;20469;-63
2020/12/16 05:34:49;;;;;;;1.10;1.10;;;5.60;98.00;;;;;;5050727;28;20516;-63
2020/12/16 05:37:31;;;;;;;1.20;1.20;;;5.60;98.00;;;;;;5049115;28;20523;-62
2020/12/16 05:40:01;;;;;;;1.40;1.40;;;5.60;98.00;;;;;;5050545;28;20456;-63
2020/12/16 05:42:29;;;;;;;1.30;1.20;;;5.60;98.00;;;;;;5050540;28;21033;-66
2020/12/16 05:44:58;;;;;;;2.53;1.50;;;5.60;98.00;;;;;;5049763;28;20491;-62
2020/12/16 05:47:25;;;;;;;1.50;1.43;;;5.60;98.00;;;;;;5050615;28;20463;-62
2020/12/16 05:49:53;;;;;;;3.20;2.67;;;5.70;98.00;;;;;;5049440;28;20465;-62
2020/12/16 05:52:19;;;;;;;1.10;1.00;;;5.70;98.00;;;;;;5050546;28;20565;-63
2020/12/16 05:54:52;;;;;;;1.70;1.50;;;5.70;98.00;;;;;;5049045;28;20834;-62
2020/12/16 05:57:21;;;;;;;1.20;1.20;;;5.80;98.00;;;;;;5050673;28;20834;-62
2020/12/16 06:00:10;;;;;;;1.20;1.10;;;5.90;98.00;;;;;;5048866;28;20523;-62
2020/12/16 06:02:37;;;;;;;1.30;1.10;;;5.90;98.00;;;;;;5050071;28;20467;-62
2020/12/16 06:05:07;;;;;;;1.97;1.30;;;6.00;98.00;;;;;;5048752;28;20512;-62
2020/12/16 06:07:38;;;;;;;1.10;0.90;;;6.00;98.00;;;;;;5050410;28;20457;-62
2020/12/16 06:10:05;;;;;;;1.50;1.40;;;6.10;98.00;;;;;;5048813;28;20515;-62
2020/12/16 06:12:32;;;;;;;1.80;1.60;;;6.20;98.00;;;;;;5050353;28;20515;-63
2020/12/16 06:15:08;;;;;;;1.10;1.10;;;6.30;98.00;;;;;;5048853;28;20798;-62
2020/12/16 06:17:42;;;;;;;1.10;1.07;;;6.30;98.00;;;;;;5050556;28;20505;-62
2020/12/16 06:20:14;;;;;;;1.50;1.30;;;6.20;98.00;;;;;;5047678;28;20972;-62
2020/12/16 06:22:42;;;;;;;1.63;1.10;;;6.10;98.00;;;;;;5050535;28;20971;-63
2020/12/16 06:25:11;;;;;;;1.33;1.23;;;6.10;98.00;;;;;;5048785;28;21000;-62
2020/12/16 06:27:45;;;;;;;1.10;1.10;;;6.00;98.00;;;;;;5050527;28;20455;-63
2020/12/16 06:30:15;;;;;;;1.70;1.53;;;6.00;98.00;;;;;;5048878;28;20477;-63
2020/12/16 06:32:45;;;;;;;1.90;1.33;;;5.90;98.00;;;;;;5050340;28;20880;-63
2020/12/16 06:35:18;;;;;;;1.90;1.70;;;6.10;98.00;;;;;;5047472;28;20498;-63
2020/12/16 06:37:46;;;;;;;1.50;1.20;;;6.20;98.00;;;;;;5050176;28;20462;-62
2020/12/16 06:40:28;;;;;;;1.57;1.50;;;6.20;98.00;;;;;;5050020;28;20458;-62
2020/12/16 06:42:55;;;;;;;1.10;1.00;;;6.10;98.00;;;;;;5053658;28;20453;-62
2020/12/16 06:45:22;;;;;;;1.93;1.30;;;6.10;98.00;;;;;;5052056;28;20486;-63
2020/12/16 06:47:56;;;;;;;2.27;1.60;;;6.10;98.00;;;;;;5053923;28;20465;-62
2020/12/16 06:50:24;;;;;;;1.30;1.10;;;6.10;98.00;;;;;;5051833;28;20453;-63
2020/12/16 06:52:50;;;;;;;1.87;1.33;;;6.00;98.00;;;;;;5053897;28;20469;-63
2020/12/16 06:55:17;;;;;;;1.10;1.00;;;5.90;98.00;;;;;;5051995;28;20946;-62
2020/12/16 06:57:48;;;;;;;1.20;1.03;;;5.90;98.00;;;;;;5053322;28;20458;-63
2020/12/16 07:00:20;;;;;;;1.10;1.00;;;5.90;98.00;;;;;;5051906;28;20462;-63
2020/12/16 07:02:47;;;;;;;1.43;1.37;;;5.90;98.00;;;;;;5053182;28;20551;-63
2020/12/16 07:05:41;;;;;;;1.77;1.73;;;6.00;98.00;;;;;;5051803;28;20488;-62
2020/12/16 07:08:08;;;;;;;2.10;1.47;;;6.00;98.00;;;;;;5017617;28;21015;-63
2020/12/16 07:10:50;;;;;;;3.63;1.50;;;6.10;98.00;;;;;;5051750;28;20962;-63
2020/12/16 07:13:28;;;;;;;1.47;1.37;;;6.10;98.00;;;;;;5053054;28;20463;-63
2020/12/16 07:15:58;;;;;;;1.30;1.23;;;6.10;98.00;;;;;;5051701;28;20453;-63
2020/12/16 07:18:30;;;;;;;1.57;1.43;;;6.10;98.00;;;;;;5053191;28;20468;-62
2020/12/16 07:21:18;;;;;;;1.73;1.37;;;6.00;98.00;;;;;;5051514;28;20988;-62
2020/12/16 07:23:46;;;;;;;1.60;1.53;;;6.00;98.00;;;;;;5051795;28;20531;-62
2020/12/16 07:26:19;;;;;;;1.90;1.77;;;6.10;98.00;;;;;;5052777;28;20479;-62
2020/12/16 07:28:46;;;;;;;3.13;2.60;;;6.10;98.00;;;;;;5052077;28;20969;-62
2020/12/16 07:31:12;;;;;;;1.73;1.63;;;6.10;98.00;;;;;;5052811;28;20467;-62
2020/12/16 07:33:42;;;;;;;1.60;1.23;;;6.10;98.00;;;;;;5052779;28;20951;-62
2020/12/16 07:36:09;;;;;;;3.33;1.50;;;6.20;98.00;;;;;;5051156;28;20455;-62
2020/12/16 07:38:38;;;;;;;2.40;2.03;;;6.30;98.00;;;;;;5052734;28;20460;-63
2020/12/16 07:41:04;;;;;;;9.83;2.00;;;6.30;98.00;;;;;;5051360;28;20465;-61
2020/12/16 07:43:31;;;;;;;1.43;1.37;;;6.40;98.00;;;;;;5051436;28;20861;-63
2020/12/16 07:46:02;;;;;;;1.10;1.00;;;6.40;98.00;;;;;;5051258;28;20492;-62
2020/12/16 07:48:28;;;;;;;1.37;1.30;;;6.30;98.00;;;;;;5053076;28;20458;-63
2020/12/16 07:51:07;;;;;;;1.70;1.50;;;6.40;98.00;;;;;;5051034;28;20494;-61
2020/12/16 07:53:34;;;;;;;1.90;1.73;;;6.30;98.00;;;;;;5052607;28;21048;-62
2020/12/16 07:56:03;;;;;;;2.60;1.73;;;6.20;98.00;;;;;;5051109;28;20456;-62
2020/12/16 07:58:31;;;;;;;1.23;1.10;;;6.20;98.00;;;;;;5052688;28;20480;-62
2020/12/16 08:01:08;;;;;;;4.80;1.77;;;6.20;98.00;;;;;;5049640;28;20457;-62
2020/12/16 08:03:35;;;;;;;1.53;1.20;;;6.30;98.00;;;;;;5052541;28;20463;-62
2020/12/16 08:06:02;;;;;;;3.20;1.73;;;6.20;98.00;;;;;;5050905;28;20491;-62
2020/12/16 08:08:30;;;;;;;1.40;1.40;;;6.30;98.00;;;;;;5052346;28;20486;-62
2020/12/16 08:10:57;;;;;;;1.87;1.63;;;6.30;98.00;;;;;;5051158;28;20465;-63
2020/12/16 08:13:27;;;;;;;1.50;1.40;;;6.40;98.00;;;;;;5052623;28;20460;-62
2020/12/16 08:16:04;;;;;;;2.57;2.10;;;6.40;98.00;;;;;;5050794;28;20447;-62
2020/12/16 08:18:31;;;;;;;1.50;1.40;;;6.40;98.00;;;;;;5052230;28;20463;-62
2020/12/16 08:20:57;;;;;;;1.83;1.70;;;6.40;98.00;;;;;;5050426;28;20461;-62
2020/12/16 08:23:24;;;;;;;2.30;2.17;;;6.60;98.00;;;;;;5052074;28;20457;-62
2020/12/16 08:25:50;;;;;;;1.20;1.10;;;6.60;98.00;;;;;;5050245;28;20484;-63
2020/12/16 08:28:27;;;;;;;1.90;1.77;;;6.70;98.00;;;;;;5051790;28;20460;-62
2020/12/16 08:30:53;;;;;;;1.20;1.20;;;6.70;98.00;;;;;;5050293;28;20551;-62
2020/12/16 08:33:24;;;;;;;2.57;1.37;;;6.70;98.00;;;;;;5051681;28;20949;-62
2020/12/16 08:35:59;;;;;;;2.53;2.03;;;6.70;98.00;;;;;;5050124;28;20463;-62
2020/12/16 08:38:29;;;;;;;1.87;1.40;;;6.70;98.00;;;;;;5051688;28;20462;-63
2020/12/16 08:40:58;;;;;;;1.27;1.23;;;6.70;98.00;;;;;;5050323;28;20458;-63
2020/12/16 08:43:29;;;;;;;1.70;1.63;;;6.70;98.00;;;;;;5051583;28;20454;-62
2020/12/16 08:46:01;;;;;;;1.20;1.17;;;6.70;98.00;;;;;;5050251;28;21011;-62
2020/12/16 08:48:28;;;;;;;2.57;1.83;;;6.70;98.00;;;;;;5051316;28;20460;-63
2020/12/16 08:51:05;;;;;;;2.03;1.47;;;6.80;98.00;;;;;;5049520;28;20464;-62
2020/12/16 08:53:45;;;;;;;1.20;1.20;;;6.90;98.00;;;;;;5051165;28;20455;-63
2020/12/16 08:56:29;;;;;;;1.77;1.67;;;6.90;98.00;;;;;;5049612;28;20471;-62
2020/12/16 08:59:05;;;;;;;1.20;1.10;;;6.90;98.00;;;;;;5050103;28;20520;-64
2020/12/16 09:01:32;;;;;;;1.27;1.23;;;7.00;98.00;;;;;;5049465;28;20842;-63
2020/12/16 09:03:58;;;;;;;1.57;1.30;;;7.10;98.00;;;;;;5049746;28;20514;-64
2020/12/16 09:06:26;;;;;;;1.10;1.10;;;7.00;98.00;;;;;;5049314;28;21009;-63
2020/12/16 09:08:53;;;;;;;2.80;2.13;;;7.00;98.00;;;;;;5049505;28;20469;-62
2020/12/16 09:11:20;;;;;;;1.70;1.50;;;7.00;98.00;;;;;;5048856;28;20513;-63
2020/12/16 09:13:47;;;;;;;2.13;1.37;;;7.10;98.00;;;;;;5050424;28;20515;-62
2020/12/16 09:16:23;;;;;;;1.20;1.20;;;7.10;98.00;;;;;;5049265;28;20870;-62
2020/12/16 09:22:11;;;;;;;3.83;1.77;;;7.20;98.00;;;;;;5232855;22;20515;-66
2020/12/16 09:24:37;;;;;;;1.20;1.20;;;7.20;98.00;;;;;;5030458;28;20830;-65
2020/12/16 09:27:09;;;;;;;1.40;1.30;;;7.20;98.00;;;;;;5028845;28;20520;-66
2020/12/16 09:29:43;;;;;;;1.30;1.20;;;7.40;98.00;;;;;;5030528;28;20503;-66
2020/12/16 09:32:12;;;;;;;4.10;1.77;;;7.50;98.00;;;;;;5028714;28;20472;-65
2020/12/16 09:34:41;;;;;;;1.67;1.57;;;7.60;98.00;;;;;;5030855;28;20504;-65
2020/12/16 09:37:15;;;;;;;1.50;1.30;;;7.60;98.00;;;;;;5028760;28;20465;-66
2020/12/16 09:39:42;;;;;;;4.33;1.87;;;7.80;98.00;;;;;;5030813;28;20939;-66
2020/12/16 09:42:10;;;;;;;1.67;1.43;;;7.80;98.00;;;;;;5028563;28;20466;-67
2020/12/16 09:44:48;;;;;;;1.73;1.30;;;7.80;98.00;;;;;;5030701;28;21189;-66
2020/12/16 09:47:18;;;;;;;2.47;2.17;;;7.80;98.00;;;;;;5027785;28;20478;-66
2020/12/16 09:49:47;;;;;;;2.23;1.30;;;7.80;98.00;;;;;;5031032;28;20542;-66
2020/12/16 09:52:26;;;;;;;1.73;1.43;;;7.90;98.00;;;;;;5028269;28;20945;-65
2020/12/16 09:54:53;;;;;;;2.97;1.60;;;8.00;98.00;;;;;;5029940;28;20490;-66
2020/12/16 09:57:21;;;;;;;1.40;1.30;;;7.90;98.00;;;;;;5028978;28;20462;-67
2020/12/16 09:59:48;;;;;;;3.27;2.33;;;7.90;98.00;;;;;;5031114;28;20460;-66
2020/12/16 10:02:16;;;;;;;2.90;2.20;;;7.90;98.00;;;;;;5028719;28;20462;-67
2020/12/16 10:04:43;;;;;;;4.60;2.07;;;7.80;98.00;;;;;;5030670;28;20988;-66
2020/12/16 10:07:09;;;;;;;2.27;2.07;;;7.90;98.00;;;;;;5028584;28;20494;-66
2020/12/16 10:09:38;;;;;;;1.33;1.30;;;8.10;98.00;;;;;;5029762;28;21026;-68
2020/12/16 10:12:04;;;;;;;1.20;1.20;;;8.20;98.00;;;;;;5028950;28;20999;-66
2020/12/16 10:14:33;;;;;;;1.77;1.47;;;8.20;98.00;;;;;;5030709;28;20857;-66
2020/12/16 10:17:00;;;;;;;1.77;1.73;;;8.10;98.00;;;;;;5032874;28;20459;-66
2020/12/16 10:19:28;;;;;;;1.97;1.83;;;8.10;98.00;;;;;;5034651;28;20748;-67
2020/12/16 10:21:54;;;;;;;2.13;1.33;;;8.10;98.00;;;;;;5032385;28;20458;-66
2020/12/16 10:24:20;;;;;;;2.67;2.20;;;8.20;98.00;;;;;;5034203;28;20481;-67
2020/12/16 10:26:47;;;;;;;1.70;1.20;;;8.30;98.00;;;;;;5032782;28;20551;-66
2020/12/16 10:29:16;;;;;;;2.80;1.97;;;8.30;98.00;;;;;;5034459;28;20526;-67
2020/12/16 10:31:47;;;;;;;1.87;1.77;;;8.30;98.00;;;;;;5032402;28;20467;-66
2020/12/16 10:34:13;;;;;;;2.70;2.03;;;8.50;98.00;;;;;;5034316;28;20492;-66
2020/12/16 10:36:41;;;;;;;3.77;1.77;;;8.50;98.00;;;;;;5032519;28;20467;-66
2020/12/16 10:39:07;;;;;;;1.70;1.53;;;8.50;98.00;;;;;;5034360;28;20469;-66
2020/12/16 10:41:35;;;;;;;2.90;2.03;;;8.60;98.00;;;;;;5032070;28;20497;-67
2020/12/16 10:44:02;;;;;;;1.17;1.13;;;8.60;98.00;;;;;;5034020;28;20467;-68
2020/12/16 10:46:28;;;;;;;1.60;1.30;;;8.70;98.00;;;;;;5030745;28;20524;-67
2020/12/16 10:48:55;;;;;;;2.80;2.10;;;8.90;98.00;;;;;;5034183;28;21056;-66
2020/12/16 10:51:25;;;;;;;2.50;1.80;;;9.10;98.00;;;;;;5032193;28;20487;-67
2020/12/16 10:53:53;;;;;;;1.20;1.10;;;9.30;98.00;;;;;;5034016;28;20451;-67
2020/12/16 10:56:20;;;;;;;1.83;1.60;;;9.40;98.00;;;;;;5031899;28;20452;-67
2020/12/16 10:58:48;;;;;;;4.53;1.90;;;9.40;98.00;;;;;;5033880;28;20495;-66
2020/12/16 11:01:15;;;;;;;2.07;1.93;;;9.40;98.00;;;;;;5031909;28;20465;-67
2020/12/16 11:03:43;;;;;;;2.80;2.43;;;9.50;98.00;;;;;;5033621;28;20462;-67
2020/12/16 11:06:12;;;;;;;1.93;1.53;;;9.50;98.00;;;;;;5031930;28;20493;-67
2020/12/16 11:08:39;;;;;;;2.27;1.77;;;9.70;98.00;;;;;;5034168;28;20533;-69
2020/12/16 11:11:05;;;;;;;1.50;1.40;;;9.80;98.00;;;;;;5032085;28;20509;-67
2020/12/16 11:13:34;;;;;;;1.50;1.33;;;9.90;98.00;;;;;;5033694;28;20469;-67
2020/12/16 11:16:02;;;;;;;3.67;2.10;;;10.10;98.00;;;;;;5031361;28;20515;-67
2020/12/16 11:18:29;;;;;;;2.00;1.80;;;10.20;98.00;;;;;;5033604;28;20955;-67
2020/12/16 11:20:55;;;;;;;1.90;1.83;;;10.30;98.00;;;;;;5031636;28;20473;-67
2020/12/16 11:23:22;;;;;;;1.43;1.33;;;10.40;98.00;;;;;;5032480;28;20449;-66
2020/12/16 11:25:48;;;;;;;3.50;2.37;;;10.40;98.00;;;;;;5030355;28;20482;-66
2020/12/16 11:28:15;;;;;;;2.43;1.53;;;10.70;98.00;;;;;;5033307;28;20466;-67
2020/12/16 11:30:42;;;;;;;2.50;1.60;;;10.70;98.00;;;;;;5031493;28;20463;-67
2020/12/16 11:33:09;;;;;;;2.03;1.87;;;10.80;98.00;;;;;;5033398;28;20470;-66
2020/12/16 11:35:36;;;;;;;2.90;2.00;;;10.90;98.00;;;;;;5031154;28;20921;-66
2020/12/16 11:38:02;;;;;;;3.97;1.70;;;11.00;98.00;;;;;;5032188;28;20462;-67
2020/12/16 11:40:29;;;;;;;2.40;1.93;;;11.00;98.00;;;;;;5031334;28;20466;-66
2020/12/16 11:42:55;;;;;;;1.47;1.43;;;11.00;98.00;;;;;;5033293;28;20521;-67
2020/12/16 11:45:22;;;;;;;2.33;1.73;;;10.90;98.00;;;;;;5029431;28;20512;-66
2020/12/16 11:47:49;;;;;;;2.30;1.63;;;11.00;98.00;;;;;;5033019;28;20490;-68
2020/12/16 11:50:17;;;;;;;2.50;1.83;;;11.10;98.00;;;;;;5029716;28;20817;-67
2020/12/16 11:52:44;;;;;;;4.60;2.10;;;11.10;98.00;;;;;;5032724;28;20459;-67
2020/12/16 11:55:11;;;;;;;3.00;1.53;;;11.30;98.00;;;;;;5032071;28;20474;-68
2020/12/16 11:57:37;;;;;;;3.40;2.10;;;11.30;98.00;;;;;;5032347;28;20454;-66
2020/12/16 12:00:05;;;;;;;1.30;1.23;;;11.30;98.00;;;;;;5032954;28;20508;-67
2020/12/16 12:02:31;;;;;;;1.73;1.70;;;11.30;98.00;;;;;;5030459;28;20533;-68
2020/12/16 12:04:58;;;;;;;1.93;1.27;;;11.20;98.00;;;;;;5032114;28;20455;-65
2020/12/16 12:07:26;;;;;;;1.80;1.30;;;11.30;98.00;;;;;;5030721;28;20501;-67
2020/12/16 12:09:53;;;;;;;1.50;1.30;;;11.20;98.00;;;;;;5032749;28;20939;-66
2020/12/16 12:12:19;;;;;;;2.00;1.90;;;11.30;98.00;;;;;;5030597;28;20447;-67
2020/12/16 12:14:47;;;;;;;3.83;1.53;;;11.20;98.00;;;;;;5032028;28;20458;-66
2020/12/16 12:17:14;;;;;;;1.20;1.10;;;11.20;98.00;;;;;;5030615;28;20450;-67
2020/12/16 12:19:45;;;;;;;5.23;2.50;;;11.20;98.00;;;;;;5032551;28;20450;-65
2020/12/16 12:22:11;;;;;;;1.90;1.47;;;11.20;98.00;;;;;;5029266;28;21025;-68
2020/12/16 12:24:48;;;;;;;1.83;1.77;;;11.30;98.00;;;;;;5032276;28;20494;-67
2020/12/16 12:27:14;;;;;;;2.60;1.63;;;11.40;98.00;;;;;;5030674;28;20489;-67
2020/12/16 12:29:44;;;;;;;1.50;1.40;;;11.50;98.00;;;;;;5032726;28;20475;-66
2020/12/16 12:32:11;;;;;;;1.30;1.10;;;11.50;98.00;;;;;;5030477;28;20470;-67
2020/12/16 12:34:49;;;;;;;4.53;3.17;;;11.90;98.00;;;;;;5032396;28;20502;-66
2020/12/16 12:37:17;;;;;;;1.30;1.23;;;12.40;98.00;;;;;;5030079;28;20455;-65
2020/12/16 12:39:44;;;;;;;2.00;1.80;;;12.80;98.00;;;;;;5031349;28;20456;-66
2020/12/16 12:42:11;;;;;;;2.53;1.73;;;12.90;98.00;;;;;;5030448;28;20455;-65
2020/12/16 12:44:37;;;;;;;1.53;1.47;;;13.10;98.00;;;;;;5031940;28;20462;-69
2020/12/16 12:47:04;;;;;;;1.30;1.10;;;13.30;98.00;;;;;;5030261;28;20562;-66
2020/12/16 12:49:30;;;;;;;2.17;1.87;;;13.30;98.00;;;;;;5032329;28;20524;-66
2020/12/16 12:51:57;;;;;;;5.53;1.40;;;13.10;98.00;;;;;;5030580;28;20467;-66
2020/12/16 12:54:23;;;;;;;5.43;2.37;;;13.00;98.00;;;;;;5032453;28;20445;-66
2020/12/16 12:56:51;;;;;;;2.07;1.40;;;12.80;98.00;;;;;;5030062;28;20459;-66
2020/12/16 12:59:17;;;;;;;1.50;1.33;;;12.70;98.00;;;;;;5032152;28;20454;-67
2020/12/16 13:01:44;;;;;;;1.40;1.20;;;12.60;98.00;;;;;;5030251;28;20867;-66
2020/12/16 13:04:10;;;;;;;1.20;1.10;;;12.60;98.00;;;;;;5032004;28;20539;-66
2020/12/16 13:06:37;;;;;;;3.53;1.43;;;12.60;98.00;;;;;;5029611;28;20541;-66